createdAt,value
2019-01-25T00:00:13.715Z,0
2019-01-25T00:01:22.992Z,0
2019-01-25T00:02:32.388Z,0
2019-01-25T00:03:41.410Z,0
2019-01-25T00:04:50.459Z,0
2019-01-25T00:05:59.722Z,0
2019-01-25T00:07:09.031Z,0
2019-01-25T00:08:18.083Z,0
2019-01-25T00:09:27.651Z,0
2019-01-25T00:10:36.720Z,0
2019-01-25T00:11:45.971Z,0
2019-01-25T00:12:55.242Z,0
2019-01-25T00:14:04.539Z,0
2019-01-25T00:15:14.092Z,0
2019-01-25T00:16:23.379Z,0
2019-01-25T00:17:32.650Z,0
2019-01-25T00:18:41.391Z,0
2019-01-25T00:19:50.702Z,0
2019-01-25T00:21:00.320Z,0
2019-01-25T00:22:09.635Z,0
2019-01-25T00:23:19.195Z,0
2019-01-25T00:24:28.825Z,0
2019-01-25T00:25:38.505Z,0
2019-01-25T00:26:48.074Z,0
2019-01-25T00:27:57.390Z,0
2019-01-25T00:29:06.716Z,0
2019-01-25T00:30:15.727Z,0
2019-01-25T00:31:24.569Z,0
2019-01-25T00:32:33.833Z,0
2019-01-25T00:33:43.138Z,0
2019-01-25T00:34:52.395Z,0
2019-01-25T00:36:01.936Z,0
2019-01-25T00:37:11.444Z,0
2019-01-25T00:38:21.015Z,0
2019-01-25T00:39:30.645Z,0
2019-01-25T00:40:39.641Z,0
2019-01-25T00:41:49.728Z,0
2019-01-25T00:42:58.781Z,0
2019-01-25T00:44:08.526Z,0
2019-01-25T00:45:17.813Z,0
2019-01-25T00:46:26.581Z,0
2019-01-25T00:47:36.060Z,0
2019-01-25T00:48:45.554Z,0
2019-01-25T00:49:54.830Z,0
2019-01-25T00:51:04.413Z,0
2019-01-25T00:52:13.173Z,0
2019-01-25T00:53:22.168Z,0
2019-01-25T00:54:31.417Z,0
2019-01-25T00:55:40.718Z,0
2019-01-25T00:56:50.035Z,0
2019-01-25T00:57:59.355Z,0
2019-01-25T00:59:08.842Z,0
2019-01-25T01:00:18.138Z,0
2019-01-25T01:01:29.474Z,0
2019-01-25T01:02:39.055Z,0
2019-01-25T01:03:48.064Z,0
2019-01-25T01:04:57.403Z,0
2019-01-25T01:06:06.425Z,0
2019-01-25T01:07:15.686Z,0
2019-01-25T01:08:24.718Z,0
2019-01-25T01:09:33.468Z,0
2019-01-25T01:10:42.751Z,0
2019-01-25T01:11:52.044Z,0
2019-01-25T01:13:01.053Z,0
2019-01-25T01:14:09.860Z,0
2019-01-25T01:15:19.116Z,0
2019-01-25T01:16:28.499Z,0
2019-01-25T01:17:37.519Z,0
2019-01-25T01:18:46.782Z,0
2019-01-25T01:19:56.076Z,0
2019-01-25T01:21:05.855Z,0
2019-01-25T01:22:15.118Z,0
2019-01-25T01:23:24.124Z,0
2019-01-25T01:24:33.133Z,0
2019-01-25T01:25:42.404Z,0
2019-01-25T01:26:51.137Z,0
2019-01-25T01:28:00.132Z,0
2019-01-25T01:29:09.619Z,0
2019-01-25T01:30:19.104Z,0
2019-01-25T01:31:28.325Z,0
2019-01-25T01:32:37.836Z,0
2019-01-25T01:33:47.341Z,0
2019-01-25T01:34:56.336Z,0
2019-01-25T01:36:05.579Z,0
2019-01-25T01:37:14.850Z,0
2019-01-25T01:38:24.430Z,0
2019-01-25T01:39:33.686Z,0
2019-01-25T01:40:43.458Z,0
2019-01-25T01:41:52.427Z,0
2019-01-25T01:43:01.429Z,0
2019-01-25T01:44:10.403Z,0
2019-01-25T01:45:19.645Z,0
2019-01-25T01:46:28.897Z,0
2019-01-25T01:47:38.125Z,0
2019-01-25T01:48:47.793Z,0
2019-01-25T01:49:56.908Z,0
2019-01-25T01:51:06.201Z,0
2019-01-25T01:52:15.221Z,0
2019-01-25T01:53:24.578Z,0
2019-01-25T01:54:34.137Z,0
2019-01-25T01:55:43.400Z,0
2019-01-25T01:56:52.916Z,0
2019-01-25T01:58:02.429Z,0
2019-01-25T01:59:11.530Z,0
2019-01-25T02:00:21.138Z,0
2019-01-25T02:01:30.366Z,0
2019-01-25T02:02:39.887Z,0
2019-01-25T02:03:48.884Z,0
2019-01-25T02:04:58.643Z,0
2019-01-25T02:06:07.881Z,0
2019-01-25T02:07:16.651Z,0
2019-01-25T02:08:26.204Z,0
2019-01-25T02:09:35.249Z,0
2019-01-25T02:10:44.513Z,0
2019-01-25T02:11:53.789Z,0
2019-01-25T02:13:03.351Z,0
2019-01-25T02:14:12.668Z,0
2019-01-25T02:15:22.457Z,0
2019-01-25T02:16:31.717Z,0
2019-01-25T02:17:41.002Z,0
2019-01-25T02:18:50.244Z,0
2019-01-25T02:19:59.507Z,0
2019-01-25T02:21:08.773Z,0
2019-01-25T02:22:18.053Z,0
2019-01-25T02:23:27.876Z,0
2019-01-25T02:24:36.857Z,0
2019-01-25T02:25:46.374Z,0
2019-01-25T02:26:56.564Z,0
2019-01-25T02:28:05.603Z,0
2019-01-25T02:29:14.867Z,0
2019-01-25T02:30:24.388Z,0
2019-01-25T02:31:33.423Z,0
2019-01-25T02:32:42.723Z,0
2019-01-25T02:33:52.004Z,0
2019-01-25T02:35:01.614Z,0
2019-01-25T02:36:11.399Z,0
2019-01-25T02:37:20.657Z,0
2019-01-25T02:38:29.425Z,0
2019-01-25T02:39:39.201Z,0
2019-01-25T02:40:48.514Z,0
2019-01-25T02:41:58.060Z,0
2019-01-25T02:43:07.613Z,0
2019-01-25T02:44:17.483Z,0
2019-01-25T02:45:27.022Z,0
2019-01-25T02:46:36.602Z,0
2019-01-25T02:47:45.894Z,0
2019-01-25T02:48:55.161Z,0
2019-01-25T02:50:04.233Z,0
2019-01-25T02:51:13.772Z,0
2019-01-25T02:52:23.255Z,0
2019-01-25T02:53:32.517Z,0
2019-01-25T02:54:42.102Z,0
2019-01-25T02:55:51.381Z,0
2019-01-25T02:57:00.784Z,0
2019-01-25T02:58:10.034Z,0
2019-01-25T02:59:19.375Z,0
2019-01-25T03:00:28.899Z,0
2019-01-25T03:01:37.996Z,0
2019-01-25T03:02:47.057Z,0
2019-01-25T03:03:56.829Z,0
2019-01-25T03:05:05.864Z,0
2019-01-25T03:06:15.394Z,0
2019-01-25T03:07:24.195Z,0
2019-01-25T03:08:33.464Z,0
2019-01-25T03:09:42.965Z,0
2019-01-25T03:10:54.371Z,0
2019-01-25T03:12:03.861Z,0
2019-01-25T03:13:13.137Z,0
2019-01-25T03:14:22.400Z,0
2019-01-25T03:15:31.681Z,0
2019-01-25T03:16:40.978Z,0
2019-01-25T03:17:50.441Z,0
2019-01-25T03:18:59.961Z,0
2019-01-25T03:20:09.704Z,0
2019-01-25T03:21:18.953Z,0
2019-01-25T03:22:28.500Z,0
2019-01-25T03:23:38.057Z,0
2019-01-25T03:24:47.415Z,0
2019-01-25T03:25:56.694Z,0
2019-01-25T03:27:06.243Z,0
2019-01-25T03:28:15.553Z,0
2019-01-25T03:29:24.870Z,0
2019-01-25T03:30:34.349Z,0
2019-01-25T03:31:45.050Z,0
2019-01-25T03:32:54.751Z,0
2019-01-25T03:34:04.374Z,0
2019-01-25T03:35:13.674Z,0
2019-01-25T03:36:23.434Z,0
2019-01-25T03:37:32.992Z,0
2019-01-25T03:38:42.522Z,0
2019-01-25T03:39:52.273Z,0
2019-01-25T03:41:02.571Z,0
2019-01-25T03:42:12.379Z,0
2019-01-25T03:43:21.667Z,0
2019-01-25T03:44:30.925Z,0
2019-01-25T03:45:40.424Z,0
2019-01-25T03:46:50.212Z,0
2019-01-25T03:47:59.242Z,0
2019-01-25T03:49:08.758Z,0
2019-01-25T03:50:20.074Z,0
2019-01-25T03:51:29.607Z,0
2019-01-25T03:52:39.086Z,0
2019-01-25T03:53:48.405Z,0
2019-01-25T03:54:57.431Z,0
2019-01-25T03:56:06.996Z,0
2019-01-25T03:57:16.261Z,0
2019-01-25T03:58:25.580Z,0
2019-01-25T03:59:35.322Z,0
2019-01-25T04:00:45.078Z,0
2019-01-25T04:01:54.305Z,0
2019-01-25T04:03:03.637Z,0
2019-01-25T04:04:13.419Z,0
2019-01-25T04:05:22.701Z,0
2019-01-25T04:06:31.968Z,0
2019-01-25T04:07:41.554Z,0
2019-01-25T04:08:50.784Z,0
2019-01-25T04:10:00.345Z,0
2019-01-25T04:11:10.786Z,0
2019-01-25T04:12:20.035Z,0
2019-01-25T04:13:29.813Z,0
2019-01-25T04:14:38.832Z,0
2019-01-25T04:15:47.836Z,0
2019-01-25T04:16:57.641Z,0
2019-01-25T04:18:06.921Z,0
2019-01-25T04:19:16.214Z,0
2019-01-25T04:20:25.485Z,0
2019-01-25T04:21:34.794Z,0
2019-01-25T04:22:44.063Z,0
2019-01-25T04:23:53.398Z,0
2019-01-25T04:25:03.024Z,0
2019-01-25T04:26:12.869Z,0
2019-01-25T04:27:22.438Z,0
2019-01-25T04:28:31.503Z,0
2019-01-25T04:29:41.504Z,0
2019-01-25T04:30:51.068Z,0
2019-01-25T04:32:00.161Z,0
2019-01-25T04:33:09.597Z,0
2019-01-25T04:34:19.132Z,0
2019-01-25T04:35:28.490Z,0
2019-01-25T04:36:38.023Z,0
2019-01-25T04:37:47.558Z,0
2019-01-25T04:38:57.114Z,0
2019-01-25T04:40:06.361Z,0
2019-01-25T04:41:18.914Z,0
2019-01-25T04:42:28.180Z,0
2019-01-25T04:43:37.957Z,0
2019-01-25T04:44:47.790Z,0
2019-01-25T04:45:57.144Z,0
2019-01-25T04:47:06.467Z,0
2019-01-25T04:48:16.249Z,0
2019-01-25T04:49:25.749Z,0
2019-01-25T04:50:35.008Z,0
2019-01-25T04:51:44.869Z,0
2019-01-25T04:52:53.893Z,0
2019-01-25T04:54:03.382Z,0
2019-01-25T04:55:12.923Z,0
2019-01-25T04:56:22.913Z,0
2019-01-25T04:57:32.419Z,0
2019-01-25T04:58:41.699Z,0
2019-01-25T04:59:51.252Z,0
2019-01-25T05:01:00.493Z,0
2019-01-25T05:02:10.222Z,0
2019-01-25T05:03:19.954Z,0
2019-01-25T05:04:29.605Z,0
2019-01-25T05:05:39.142Z,0
2019-01-25T05:06:48.443Z,0
2019-01-25T05:07:57.745Z,0
2019-01-25T05:09:07.313Z,0
2019-01-25T05:10:17.131Z,0
2019-01-25T05:11:27.124Z,0
2019-01-25T05:12:36.695Z,0
2019-01-25T05:13:46.451Z,0
2019-01-25T05:14:55.763Z,0
2019-01-25T05:16:05.323Z,0
2019-01-25T05:17:14.100Z,0
2019-01-25T05:18:23.599Z,0
2019-01-25T05:19:32.671Z,0
2019-01-25T05:20:41.765Z,0
2019-01-25T05:21:51.571Z,0
2019-01-25T05:23:01.108Z,0
2019-01-25T05:24:10.656Z,0
2019-01-25T05:25:20.157Z,0
2019-01-25T05:26:29.719Z,0
2019-01-25T05:27:39.277Z,0
2019-01-25T05:28:48.790Z,0
2019-01-25T05:29:58.318Z,0
2019-01-25T05:31:07.335Z,0
2019-01-25T05:32:17.097Z,0
2019-01-25T05:33:26.372Z,0
2019-01-25T05:34:35.876Z,0
2019-01-25T05:35:45.117Z,0
2019-01-25T05:36:54.889Z,0
2019-01-25T05:38:04.684Z,0
2019-01-25T05:39:14.173Z,0
2019-01-25T05:40:23.693Z,0
2019-01-25T05:41:36.006Z,0
2019-01-25T05:42:45.094Z,0
2019-01-25T05:43:54.581Z,0
2019-01-25T05:45:03.655Z,0
2019-01-25T05:46:12.661Z,0
2019-01-25T05:47:21.917Z,0
2019-01-25T05:48:31.150Z,0
2019-01-25T05:49:40.392Z,0
2019-01-25T05:50:49.686Z,0
2019-01-25T05:51:59.211Z,0
2019-01-25T05:53:08.746Z,0
2019-01-25T05:54:18.253Z,0
2019-01-25T05:55:27.805Z,0
2019-01-25T05:56:37.045Z,0
2019-01-25T05:57:46.045Z,0
2019-01-25T05:58:54.814Z,0
2019-01-25T06:00:03.901Z,0
2019-01-25T06:01:13.389Z,0
2019-01-25T06:02:22.956Z,0
2019-01-25T06:03:32.766Z,0
2019-01-25T06:04:42.038Z,0
2019-01-25T06:05:51.299Z,0
2019-01-25T06:07:00.777Z,0
2019-01-25T06:08:09.974Z,0
2019-01-25T06:09:19.254Z,0
2019-01-25T06:10:28.252Z,0
2019-01-25T06:11:42.254Z,0
2019-01-25T06:12:52.828Z,0
2019-01-25T06:14:01.857Z,0
2019-01-25T06:15:11.402Z,0
2019-01-25T06:16:20.666Z,0
2019-01-25T06:17:30.654Z,0
2019-01-25T06:18:40.231Z,0
2019-01-25T06:19:49.951Z,0
2019-01-25T06:20:59.461Z,0
2019-01-25T06:22:08.724Z,0
2019-01-25T06:23:17.978Z,0
2019-01-25T06:24:27.220Z,0
2019-01-25T06:25:36.975Z,0
2019-01-25T06:26:46.440Z,0
2019-01-25T06:27:55.910Z,0
2019-01-25T06:29:04.649Z,0
2019-01-25T06:30:13.387Z,0
2019-01-25T06:31:23.539Z,0
2019-01-25T06:32:32.975Z,0
2019-01-25T06:33:41.992Z,0
2019-01-25T06:34:52.005Z,0
2019-01-25T06:36:01.514Z,0
2019-01-25T06:37:11.487Z,0
2019-01-25T06:38:21.008Z,0
2019-01-25T06:39:30.021Z,0
2019-01-25T06:40:39.236Z,0
2019-01-25T06:41:50.987Z,0
2019-01-25T06:43:00.037Z,0
2019-01-25T06:44:09.808Z,0
2019-01-25T06:45:19.542Z,0
2019-01-25T06:46:29.107Z,0
2019-01-25T06:47:38.625Z,0
2019-01-25T06:48:47.876Z,0
2019-01-25T06:49:57.583Z,0
2019-01-25T06:51:06.891Z,0
2019-01-25T06:52:16.107Z,0
2019-01-25T06:53:25.588Z,0
2019-01-25T06:54:34.632Z,0
2019-01-25T06:55:43.881Z,0
2019-01-25T06:56:49.473Z,0
2019-01-25T06:57:59.182Z,0
2019-01-25T06:59:08.976Z,0
2019-01-25T07:00:18.237Z,0
2019-01-25T07:01:27.771Z,0
2019-01-25T07:02:36.616Z,0
2019-01-25T07:03:45.629Z,0
2019-01-25T07:04:54.840Z,0
2019-01-25T07:06:03.837Z,0
2019-01-25T07:07:13.176Z,0
2019-01-25T07:08:23.177Z,0
2019-01-25T07:09:32.464Z,0
2019-01-25T07:10:41.720Z,0
2019-01-25T07:11:58.177Z,0
2019-01-25T07:13:07.142Z,0
2019-01-25T07:14:16.391Z,0
2019-01-25T07:15:25.648Z,0
2019-01-25T07:16:35.199Z,0
2019-01-25T07:17:44.771Z,0
2019-01-25T07:18:54.071Z,0
2019-01-25T07:20:03.902Z,0
2019-01-25T07:21:13.472Z,0
2019-01-25T07:22:22.735Z,0
2019-01-25T07:23:31.782Z,0
2019-01-25T07:24:40.796Z,0
2019-01-25T07:25:49.854Z,0
2019-01-25T07:26:59.196Z,0
2019-01-25T07:28:08.571Z,0
2019-01-25T07:29:17.689Z,0
2019-01-25T07:30:27.526Z,0
2019-01-25T07:31:37.266Z,0
2019-01-25T07:32:47.367Z,0
2019-01-25T07:33:57.045Z,0
2019-01-25T07:35:06.719Z,0
2019-01-25T07:36:15.488Z,0
2019-01-25T07:37:25.205Z,0
2019-01-25T07:38:34.187Z,0
2019-01-25T07:39:43.530Z,0
2019-01-25T07:40:52.922Z,0
2019-01-25T07:42:07.511Z,0
2019-01-25T07:43:17.174Z,0
2019-01-25T07:44:26.567Z,0
2019-01-25T07:45:35.790Z,0
2019-01-25T07:46:45.195Z,0
2019-01-25T07:47:55.331Z,0
2019-01-25T07:49:04.349Z,0
2019-01-25T07:50:14.619Z,0
2019-01-25T07:51:24.285Z,0
2019-01-25T07:52:33.706Z,0
2019-01-25T07:53:43.385Z,0
2019-01-25T07:54:53.031Z,0
2019-01-25T07:56:02.607Z,0
2019-01-25T07:57:12.288Z,0
2019-01-25T07:58:21.743Z,0
2019-01-25T07:59:30.654Z,0
2019-01-25T08:00:40.075Z,0
2019-01-25T08:01:49.726Z,0
2019-01-25T08:02:59.126Z,0
2019-01-25T08:04:08.577Z,0
2019-01-25T08:05:18.113Z,0
2019-01-25T08:06:27.800Z,0
2019-01-25T08:07:37.103Z,0
2019-01-25T08:08:46.843Z,0
2019-01-25T08:09:56.709Z,0
2019-01-25T08:11:06.329Z,0
2019-01-25T08:12:16.259Z,0
2019-01-25T08:13:26.212Z,0
2019-01-25T08:14:35.319Z,0
2019-01-25T08:15:46.267Z,0
2019-01-25T08:16:55.852Z,0
2019-01-25T08:18:05.802Z,0
2019-01-25T08:19:15.462Z,0
2019-01-25T08:20:24.877Z,0
2019-01-25T08:21:36.052Z,0
2019-01-25T08:22:45.365Z,0
2019-01-25T08:23:54.517Z,0
2019-01-25T08:25:03.958Z,0
2019-01-25T08:26:13.384Z,0
2019-01-25T08:27:22.701Z,0
2019-01-25T08:28:32.425Z,0
2019-01-25T08:29:41.596Z,0
2019-01-25T08:30:51.518Z,0
2019-01-25T08:32:00.672Z,0
2019-01-25T08:33:10.254Z,4
2019-01-25T08:34:20.014Z,4
2019-01-25T08:35:30.259Z,4
2019-01-25T08:36:40.057Z,4
2019-01-25T08:37:49.810Z,4
2019-01-25T08:38:59.633Z,4
2019-01-25T08:40:09.374Z,4
2019-01-25T08:41:18.564Z,4
2019-01-25T08:42:28.494Z,0
2019-01-25T08:43:37.872Z,0
2019-01-25T08:44:47.039Z,4
2019-01-25T08:45:57.201Z,4
2019-01-25T08:47:07.049Z,0
2019-01-25T08:48:16.624Z,0
2019-01-25T08:49:26.036Z,0
2019-01-25T08:50:35.029Z,4
2019-01-25T08:51:44.379Z,4
2019-01-25T08:52:54.375Z,4
2019-01-25T08:54:03.649Z,4
2019-01-25T08:55:12.693Z,4
2019-01-25T08:56:22.699Z,4
2019-01-25T08:57:32.442Z,4
2019-01-25T08:58:42.996Z,4
2019-01-25T08:59:53.115Z,4
2019-01-25T09:01:02.864Z,4
2019-01-25T09:02:12.190Z,4
2019-01-25T09:03:21.577Z,4
2019-01-25T09:04:30.733Z,4
2019-01-25T09:05:40.081Z,0
2019-01-25T09:06:49.736Z,0
2019-01-25T09:07:59.094Z,0
2019-01-25T09:09:08.152Z,0
2019-01-25T09:10:17.566Z,0
2019-01-25T09:11:26.960Z,0
2019-01-25T09:12:36.650Z,0
2019-01-25T09:13:45.461Z,0
2019-01-25T09:14:54.871Z,4
2019-01-25T09:16:04.412Z,4
2019-01-25T09:17:13.755Z,4
2019-01-25T09:18:23.354Z,4
2019-01-25T09:19:32.248Z,4
2019-01-25T09:20:41.368Z,4
2019-01-25T09:21:50.631Z,0
2019-01-25T09:22:59.965Z,4
2019-01-25T09:24:08.858Z,4
2019-01-25T09:25:18.223Z,4
2019-01-25T09:26:28.134Z,4
2019-01-25T09:27:37.220Z,4
2019-01-25T09:28:46.269Z,4
2019-01-25T09:29:55.654Z,4
2019-01-25T09:31:04.743Z,4
2019-01-25T09:32:14.628Z,4
2019-01-25T09:33:23.988Z,4
2019-01-25T09:34:33.923Z,4
2019-01-25T09:35:43.363Z,4
2019-01-25T09:36:52.783Z,0
2019-01-25T09:38:02.735Z,4
2019-01-25T09:39:12.448Z,8
2019-01-25T09:40:21.886Z,4
2019-01-25T09:41:31.722Z,8
2019-01-25T09:42:40.840Z,8
2019-01-25T09:43:50.239Z,8
2019-01-25T09:44:59.604Z,4
2019-01-25T09:46:09.330Z,4
2019-01-25T09:47:18.431Z,4
2019-01-25T09:48:27.749Z,8
2019-01-25T09:49:37.409Z,4
2019-01-25T09:50:52.649Z,4
2019-01-25T09:52:02.002Z,4
2019-01-25T09:53:11.328Z,0
2019-01-25T09:54:21.022Z,4
2019-01-25T09:55:31.308Z,4
2019-01-25T09:56:40.631Z,4
2019-01-25T09:57:50.250Z,4
2019-01-25T09:58:59.590Z,4
2019-01-25T10:00:08.680Z,8
2019-01-25T10:01:17.737Z,4
2019-01-25T10:02:27.344Z,8
2019-01-25T10:03:36.982Z,8
2019-01-25T10:04:46.563Z,4
2019-01-25T10:05:55.855Z,8
2019-01-25T10:07:05.962Z,4
2019-01-25T10:08:15.320Z,4
2019-01-25T10:09:24.650Z,4
2019-01-25T10:10:34.262Z,4
2019-01-25T10:11:43.316Z,8
2019-01-25T10:12:52.422Z,4
2019-01-25T10:14:01.745Z,8
2019-01-25T10:15:11.044Z,4
2019-01-25T10:16:20.395Z,8
2019-01-25T10:17:29.722Z,8
2019-01-25T10:18:38.909Z,4
2019-01-25T10:19:48.579Z,4
2019-01-25T10:20:58.233Z,8
2019-01-25T10:22:08.796Z,8
2019-01-25T10:23:18.044Z,8
2019-01-25T10:24:27.936Z,8
2019-01-25T10:25:37.844Z,8
2019-01-25T10:26:47.682Z,8
2019-01-25T10:27:57.106Z,12
2019-01-25T10:29:06.447Z,12
2019-01-25T10:30:15.960Z,12
2019-01-25T10:31:25.793Z,8
2019-01-25T10:32:35.419Z,12
2019-01-25T10:33:45.710Z,12
2019-01-25T10:34:55.622Z,12
2019-01-25T10:36:04.661Z,12
2019-01-25T10:37:14.260Z,12
2019-01-25T10:38:24.093Z,8
2019-01-25T10:39:33.722Z,8
2019-01-25T10:40:43.072Z,8
2019-01-25T10:41:52.113Z,8
2019-01-25T10:43:01.755Z,8
2019-01-25T10:44:11.581Z,8
2019-01-25T10:45:21.399Z,8
2019-01-25T10:46:30.510Z,8
2019-01-25T10:47:40.102Z,8
2019-01-25T10:48:49.125Z,8
2019-01-25T10:49:59.255Z,8
2019-01-25T10:51:08.632Z,8
2019-01-25T10:52:17.873Z,8
2019-01-25T10:53:27.178Z,8
2019-01-25T10:54:36.305Z,8
2019-01-25T10:55:46.210Z,8
2019-01-25T10:56:55.826Z,8
2019-01-25T10:58:05.258Z,8
2019-01-25T10:59:15.101Z,8
2019-01-25T11:00:24.430Z,8
2019-01-25T11:01:33.687Z,4
2019-01-25T11:02:43.069Z,4
2019-01-25T11:03:53.594Z,4
2019-01-25T11:05:02.648Z,4
2019-01-25T11:06:11.731Z,4
2019-01-25T11:07:20.986Z,4
2019-01-25T11:08:30.052Z,8
2019-01-25T11:09:44.526Z,8
2019-01-25T11:10:54.303Z,4
2019-01-25T11:12:03.366Z,8
2019-01-25T11:13:12.424Z,4
2019-01-25T11:14:21.713Z,8
2019-01-25T11:15:30.795Z,8
2019-01-25T11:16:40.338Z,8
2019-01-25T11:17:51.066Z,8
2019-01-25T11:19:00.943Z,8
2019-01-25T11:20:10.198Z,8
2019-01-25T11:21:19.246Z,8
2019-01-25T11:22:28.324Z,12
2019-01-25T11:23:37.961Z,8
2019-01-25T11:24:47.776Z,12
2019-01-25T11:25:57.540Z,12
2019-01-25T11:27:07.171Z,12
2019-01-25T11:28:16.488Z,12
2019-01-25T11:29:26.092Z,12
2019-01-25T11:30:35.933Z,12
2019-01-25T11:31:45.314Z,16
2019-01-25T11:32:54.668Z,12
2019-01-25T11:34:03.975Z,20
2019-01-25T11:35:13.370Z,16
2019-01-25T11:36:22.372Z,16
2019-01-25T11:37:31.966Z,16
2019-01-25T11:38:41.042Z,16
2019-01-25T11:39:53.839Z,12
2019-01-25T11:41:03.475Z,20
2019-01-25T11:42:12.597Z,20
2019-01-25T11:43:21.991Z,16
2019-01-25T11:44:31.786Z,16
2019-01-25T11:45:41.334Z,16
2019-01-25T11:46:50.510Z,16
2019-01-25T11:48:00.937Z,12
2019-01-25T11:49:10.359Z,12
2019-01-25T11:50:19.966Z,16
2019-01-25T11:51:29.775Z,16
2019-01-25T11:52:38.785Z,16
2019-01-25T11:53:48.221Z,20
2019-01-25T11:54:57.810Z,16
2019-01-25T11:56:07.376Z,20
2019-01-25T11:57:17.552Z,20
2019-01-25T11:58:27.857Z,24
2019-01-25T11:59:37.711Z,24
2019-01-25T12:00:46.828Z,20
2019-01-25T12:01:56.400Z,24
2019-01-25T12:03:05.567Z,24
2019-01-25T12:04:15.253Z,20
2019-01-25T12:05:24.345Z,20
2019-01-25T12:06:33.969Z,20
2019-01-25T12:07:43.147Z,20
2019-01-25T12:08:53.268Z,16
2019-01-25T12:10:02.361Z,20
2019-01-25T12:11:11.959Z,16
2019-01-25T12:12:22.091Z,16
2019-01-25T12:13:32.124Z,16
2019-01-25T12:14:41.739Z,16
2019-01-25T12:15:51.442Z,16
2019-01-25T12:17:00.831Z,24
2019-01-25T12:18:10.265Z,20
2019-01-25T12:19:19.696Z,24
2019-01-25T12:20:29.560Z,24
2019-01-25T12:21:39.238Z,24
2019-01-25T12:22:48.327Z,24
2019-01-25T12:23:57.333Z,24
2019-01-25T12:25:06.744Z,24
2019-01-25T12:26:15.794Z,20
2019-01-25T12:27:25.123Z,20
2019-01-25T12:28:34.501Z,20
2019-01-25T12:29:44.028Z,20
2019-01-25T12:30:53.115Z,24
2019-01-25T12:32:03.739Z,24
2019-01-25T12:33:13.153Z,28
2019-01-25T12:34:22.784Z,28
2019-01-25T12:35:32.209Z,20
2019-01-25T12:36:41.547Z,20
2019-01-25T12:37:50.349Z,24
2019-01-25T12:38:59.380Z,20
2019-01-25T12:40:09.469Z,20
2019-01-25T12:41:18.566Z,16
2019-01-25T12:42:27.603Z,20
2019-01-25T12:43:37.376Z,16
2019-01-25T12:44:46.642Z,20
2019-01-25T12:45:57.332Z,16
2019-01-25T12:47:07.153Z,16
2019-01-25T12:48:16.632Z,16
2019-01-25T12:49:26.499Z,16
2019-01-25T12:50:36.066Z,16
2019-01-25T12:51:46.042Z,16
2019-01-25T12:52:55.743Z,16
2019-01-25T12:54:05.098Z,16
2019-01-25T12:55:14.354Z,16
2019-01-25T12:56:23.235Z,20
2019-01-25T12:57:33.067Z,16
2019-01-25T12:58:42.471Z,20
2019-01-25T12:59:52.544Z,16
2019-01-25T13:01:01.680Z,16
2019-01-25T13:02:11.221Z,12
2019-01-25T13:03:20.103Z,16
2019-01-25T13:04:29.500Z,16
2019-01-25T13:05:38.814Z,16
2019-01-25T13:06:48.337Z,16
2019-01-25T13:07:58.031Z,16
2019-01-25T13:09:07.364Z,12
2019-01-25T13:10:16.960Z,12
2019-01-25T13:11:26.792Z,12
2019-01-25T13:12:36.116Z,12
2019-01-25T13:13:45.653Z,12
2019-01-25T13:14:55.062Z,16
2019-01-25T13:16:04.175Z,12
2019-01-25T13:17:13.268Z,12
2019-01-25T13:18:22.623Z,12
2019-01-25T13:19:31.934Z,12
2019-01-25T13:20:46.269Z,12
2019-01-25T13:21:55.898Z,12
2019-01-25T13:23:05.732Z,16
2019-01-25T13:24:15.075Z,16
2019-01-25T13:25:24.692Z,12
2019-01-25T13:26:34.374Z,12
2019-01-25T13:27:44.210Z,12
2019-01-25T13:28:54.221Z,12
2019-01-25T13:30:03.723Z,12
2019-01-25T13:31:13.999Z,12
2019-01-25T13:32:23.192Z,12
2019-01-25T13:33:32.725Z,12
2019-01-25T13:34:42.204Z,12
2019-01-25T13:35:52.217Z,12
2019-01-25T13:37:04.406Z,12
2019-01-25T13:38:13.237Z,12
2019-01-25T13:39:22.535Z,16
2019-01-25T13:40:31.820Z,12
2019-01-25T13:41:41.396Z,12
2019-01-25T13:42:50.919Z,12
2019-01-25T13:44:00.779Z,16
2019-01-25T13:45:09.884Z,12
2019-01-25T13:46:18.841Z,12
2019-01-25T13:47:28.105Z,12
2019-01-25T13:48:37.489Z,12
2019-01-25T13:49:46.772Z,12
2019-01-25T13:50:56.306Z,12
2019-01-25T13:52:05.899Z,8
2019-01-25T13:53:15.773Z,8
2019-01-25T13:54:28.782Z,12
2019-01-25T13:55:38.761Z,8
2019-01-25T13:56:50.200Z,12
2019-01-25T13:57:59.753Z,12
2019-01-25T13:59:10.352Z,8
2019-01-25T14:00:19.680Z,8
2019-01-25T14:01:36.850Z,8
2019-01-25T14:02:46.149Z,8
2019-01-25T14:03:55.780Z,8
2019-01-25T14:05:06.574Z,8
2019-01-25T14:06:15.889Z,8
2019-01-25T14:07:28.184Z,8
2019-01-25T14:08:37.506Z,8
2019-01-25T14:09:47.069Z,8
2019-01-25T14:10:56.742Z,8
2019-01-25T14:12:05.830Z,4
2019-01-25T14:13:15.934Z,4
2019-01-25T14:14:25.475Z,4
2019-01-25T14:15:34.569Z,4
2019-01-25T14:16:43.977Z,4
2019-01-25T14:17:53.491Z,8
2019-01-25T14:19:02.576Z,8
2019-01-25T14:20:12.210Z,8
2019-01-25T14:21:21.366Z,4
2019-01-25T14:22:30.519Z,4
2019-01-25T14:23:40.177Z,4
2019-01-25T14:24:49.488Z,8
2019-01-25T14:25:59.317Z,8
2019-01-25T14:27:08.849Z,8
2019-01-25T14:28:18.093Z,8
2019-01-25T14:29:31.710Z,8
2019-01-25T14:30:40.529Z,4
2019-01-25T14:31:49.840Z,4
2019-01-25T14:32:59.161Z,4
2019-01-25T14:34:08.762Z,4
2019-01-25T14:35:18.648Z,4
2019-01-25T14:36:28.529Z,4
2019-01-25T14:37:38.099Z,8
2019-01-25T14:38:47.697Z,8
2019-01-25T14:39:57.370Z,8
2019-01-25T14:41:06.796Z,8
2019-01-25T14:42:16.506Z,8
2019-01-25T14:43:25.550Z,4
2019-01-25T14:44:34.972Z,8
2019-01-25T14:45:44.785Z,8
2019-01-25T14:46:54.413Z,4
2019-01-25T14:48:03.750Z,4
2019-01-25T14:49:12.924Z,4
2019-01-25T14:50:23.002Z,8
2019-01-25T14:51:32.908Z,4
2019-01-25T14:52:42.465Z,4
2019-01-25T14:53:55.637Z,4
2019-01-25T14:55:05.198Z,4
2019-01-25T14:56:14.817Z,4
2019-01-25T14:57:24.215Z,4
2019-01-25T14:58:33.644Z,4
2019-01-25T14:59:42.755Z,4
2019-01-25T15:00:52.373Z,4
2019-01-25T15:02:01.734Z,4
2019-01-25T15:03:11.066Z,4
2019-01-25T15:04:20.905Z,4
2019-01-25T15:05:30.548Z,4
2019-01-25T15:06:40.402Z,4
2019-01-25T15:07:49.695Z,4
2019-01-25T15:08:59.529Z,4
2019-01-25T15:10:09.477Z,4
2019-01-25T15:11:19.585Z,4
2019-01-25T15:12:29.050Z,0
2019-01-25T15:13:38.651Z,0
2019-01-25T15:14:48.514Z,0
2019-01-25T15:15:57.825Z,0
2019-01-25T15:17:07.152Z,0
2019-01-25T15:18:18.023Z,4
2019-01-25T15:19:27.563Z,4
2019-01-25T15:20:37.293Z,4
2019-01-25T15:21:46.522Z,4
2019-01-25T15:22:55.902Z,4
2019-01-25T15:24:05.946Z,4
2019-01-25T15:25:15.570Z,0
2019-01-25T15:26:26.076Z,0
2019-01-25T15:27:34.890Z,0
2019-01-25T15:28:44.418Z,0
2019-01-25T15:29:54.006Z,0
2019-01-25T15:31:03.577Z,0
2019-01-25T15:32:12.962Z,0
2019-01-25T15:33:21.805Z,0
2019-01-25T15:34:31.425Z,0
2019-01-25T15:35:40.836Z,0
2019-01-25T15:36:50.880Z,0
2019-01-25T15:37:59.928Z,0
2019-01-25T15:39:09.501Z,0
2019-01-25T15:40:18.509Z,0
2019-01-25T15:41:27.586Z,0
2019-01-25T15:42:37.353Z,0
2019-01-25T15:43:47.352Z,0
2019-01-25T15:44:57.028Z,0
2019-01-25T15:46:06.659Z,0
2019-01-25T15:47:16.780Z,0
2019-01-25T15:48:26.436Z,0
2019-01-25T15:49:35.590Z,0
2019-01-25T15:50:45.239Z,0
2019-01-25T15:51:54.470Z,0
2019-01-25T15:53:03.857Z,0
2019-01-25T15:54:13.837Z,0
2019-01-25T15:55:23.201Z,0
2019-01-25T15:56:32.509Z,0
2019-01-25T15:57:41.794Z,0
2019-01-25T15:58:51.630Z,0
2019-01-25T16:00:00.955Z,0
2019-01-25T16:01:10.597Z,0
2019-01-25T16:02:20.219Z,0
2019-01-25T16:03:30.238Z,0
2019-01-25T16:04:42.486Z,0
2019-01-25T16:05:51.787Z,0
2019-01-25T16:07:01.679Z,0
2019-01-25T16:08:10.971Z,0
2019-01-25T16:09:28.557Z,0
2019-01-25T16:10:38.084Z,0
2019-01-25T16:11:47.494Z,0
2019-01-25T16:12:57.318Z,0
2019-01-25T16:14:06.919Z,0
2019-01-25T16:15:16.619Z,0
2019-01-25T16:16:26.511Z,0
2019-01-25T16:17:36.805Z,0
2019-01-25T16:18:46.086Z,0
2019-01-25T16:19:55.737Z,0
2019-01-25T16:21:05.283Z,0
2019-01-25T16:22:14.311Z,0
2019-01-25T16:23:23.607Z,0
2019-01-25T16:24:33.264Z,0
2019-01-25T16:25:42.643Z,0
2019-01-25T16:26:52.330Z,0
2019-01-25T16:28:01.285Z,0
2019-01-25T16:29:10.595Z,0
2019-01-25T16:30:20.063Z,0
2019-01-25T16:31:29.690Z,0
2019-01-25T16:32:38.844Z,0
2019-01-25T16:33:48.316Z,0
2019-01-25T16:34:57.613Z,0
2019-01-25T16:36:06.736Z,0
2019-01-25T16:37:15.775Z,0
2019-01-25T16:38:24.922Z,0
2019-01-25T16:39:34.246Z,0
2019-01-25T16:40:43.505Z,0
2019-01-25T16:41:53.360Z,0
2019-01-25T16:43:02.617Z,0
2019-01-25T16:44:11.646Z,0
2019-01-25T16:45:20.932Z,0
2019-01-25T16:46:30.451Z,0
2019-01-25T16:47:39.835Z,0
2019-01-25T16:48:49.148Z,0
2019-01-25T16:49:58.955Z,0
2019-01-25T16:51:08.004Z,0
2019-01-25T16:52:17.574Z,0
2019-01-25T16:53:26.715Z,0
2019-01-25T16:54:36.293Z,0
2019-01-25T16:55:46.430Z,0
2019-01-25T16:56:55.957Z,0
2019-01-25T16:58:05.641Z,0
2019-01-25T16:59:15.272Z,0
2019-01-25T17:00:24.694Z,0
2019-01-25T17:01:34.801Z,0
2019-01-25T17:02:43.918Z,0